»·PEaware :: N62GD KSJC-KTVL

N62GD :: KSJC-KTVL

FLIGHT INFORMATION

Flight Status: Arrived
Operator: Privately registered:
United States
More flights under this callsign
Pilot: Andrew S. (20703)
Aircraft: PILATUS PC-12 EAGLE
(PC12)
More flights by this aircraft type
Origin: KSJC Mineta San Jose Intl
United States
Destination: KTVL Lake Tahoe
United States
More flights between these airports :: More routes between these airports
Route: +SJC V334 SAC SWR
File this flight plan on PilotEdge
Remarks:
Altitude:
(Current/Filed)
19,000ft
Speed:
(Current/Filed)
267kts
Departed: 13-Dec-18 08:27 PM
Arrived: 13-Dec-18 09:11 PM
Distance/Time
Traveled:
131nm/0:44
Distance/Time
To Go:
Arrived

Flight Plot

Page will automatically refresh every two minutes.

Flight plan parsing failed; only flown route is shown


Map Options




Map Legend


Flown Route
Filed Route
Departure Airport
Arrival Airport
Navaid (VOR, NDB)
Fix

Horizontal Profiles

Position Reports

Time Latitude Longitude Heading Altitude Ground
Speed
13-Dec-18 20:01 37.358618 -121.931227 337 66ft 0kts
13-Dec-18 20:02 37.358618 -121.931227 337 66ft 0kts
13-Dec-18 20:03 37.358618 -121.931227 337 66ft 0kts
13-Dec-18 20:04 37.358618 -121.931227 337 66ft 0kts
13-Dec-18 20:05 37.358618 -121.931227 337 66ft 0kts
13-Dec-18 20:06 37.358618 -121.931227 337 66ft 0kts
13-Dec-18 20:07 37.358618 -121.931227 337 66ft 0kts
13-Dec-18 20:12 37.358619 -121.931227 339 66ft 0kts
13-Dec-18 20:13 37.358619 -121.931227 339 66ft 0kts
13-Dec-18 20:14 37.358619 -121.931227 339 66ft 0kts
13-Dec-18 20:15 37.358619 -121.931227 339 66ft 0kts
13-Dec-18 20:16 37.358619 -121.931227 339 66ft 0kts
13-Dec-18 20:17 37.358619 -121.931227 339 66ft 0kts
13-Dec-18 20:18 37.358619 -121.931227 339 66ft 0kts
13-Dec-18 20:19 37.358619 -121.931227 339 66ft 0kts
13-Dec-18 20:20 37.358619 -121.931227 339 66ft 0kts
13-Dec-18 20:21 37.358619 -121.931227 339 66ft 0kts
13-Dec-18 20:22 37.358891 -121.930363 125 66ft 14kts
13-Dec-18 20:23 37.354804 -121.925632 135 66ft 24kts
13-Dec-18 20:24 37.352048 -121.919944 79 66ft 12kts
13-Dec-18 20:25 37.352067 -121.919858 69 66ft 0kts
13-Dec-18 20:26 37.356868 -121.923466 318 80ft 104kts
13-Dec-18 20:27 37.383190 -121.952589 313 1755ft 154kts
13-Dec-18 20:28 37.422583 -121.970126 30 3942ft 184kts
13-Dec-18 20:29 37.469988 -121.931287 32 5007ft 239kts
13-Dec-18 20:30 37.525134 -121.883904 36 6262ft 225kts
13-Dec-18 20:32 37.573969 -121.839959 38 8315ft 211kts
13-Dec-18 20:33 37.625321 -121.804284 14 10256ft 221kts
13-Dec-18 20:34 37.679897 -121.787806 12 13101ft 196kts
13-Dec-18 20:35 37.734458 -121.771293 12 15374ft 208kts
13-Dec-18 20:36 37.791339 -121.753861 11 17508ft 218kts
13-Dec-18 20:37 37.851499 -121.735382 10 19482ft 231kts
13-Dec-18 20:38 37.923116 -121.713297 11 19363ft 280kts
13-Dec-18 20:39 38.000479 -121.689376 11 19231ft 290kts
13-Dec-18 20:40 38.078788 -121.665183 11 19240ft 289kts
13-Dec-18 20:41 38.156279 -121.641225 11 19236ft 289kts
13-Dec-18 20:42 38.234062 -121.617120 11 19238ft 289kts
13-Dec-18 20:43 38.312000 -121.592905 11 19242ft 289kts
13-Dec-18 20:44 38.390184 -121.568570 11 19246ft 291kts
13-Dec-18 20:45 38.460104 -121.523297 52 19248ft 292kts
13-Dec-18 20:46 38.508860 -121.440712 55 19248ft 292kts
13-Dec-18 20:47 38.557491 -121.357289 55 19248ft 292kts
13-Dec-18 20:48 38.605399 -121.274939 55 19247ft 292kts
13-Dec-18 20:49 38.653891 -121.191369 55 19247ft 292kts
13-Dec-18 20:50 38.702100 -121.108033 55 19249ft 292kts
13-Dec-18 20:51 38.750369 -121.024429 55 19251ft 291kts
13-Dec-18 20:51 38.790300 -120.955098 54 19250ft 291kts
13-Dec-18 20:53 38.846207 -120.857808 55 19249ft 290kts
13-Dec-18 20:53 38.886315 -120.787725 55 18711ft 294kts
13-Dec-18 20:54 38.934391 -120.703570 54 17790ft 292kts
13-Dec-18 20:55 38.979750 -120.618064 61 16886ft 290kts
13-Dec-18 20:57 39.026116 -120.513559 61 15854ft 288kts
13-Dec-18 20:57 39.058720 -120.439661 60 15355ft 280kts
13-Dec-18 20:58 39.096594 -120.353576 60 14933ft 273kts
13-Dec-18 20:59 39.133245 -120.270034 61 14481ft 270kts
13-Dec-18 21:00 39.170307 -120.185317 61 13846ft 272kts
13-Dec-18 21:01 39.204001 -120.099062 90 13023ft 264kts
13-Dec-18 21:02 39.182516 -120.013578 115 11801ft 241kts
13-Dec-18 21:03 39.135209 -119.977511 178 10884ft 188kts
13-Dec-18 21:04 39.088799 -119.975937 180 10454ft 171kts
13-Dec-18 21:05 39.041383 -119.974932 180 9274ft 169kts
13-Dec-18 21:06 39.003201 -119.974339 186 8343ft 129kts
13-Dec-18 21:07 38.966710 -119.978594 176 7600ft 120kts
13-Dec-18 21:08 38.938399 -119.981719 191 7068ft 99kts
13-Dec-18 21:09 38.914744 -119.989145 194 6294ft 72kts
13-Dec-18 21:10 38.913567 -119.989713 206 6264ft 0kts

Navigation Log

Ident Type
Flight plan parsing failed, navigation log unavailable